createdAt,value
2023-01-30T00:01:00.893Z,-2.92
2023-01-30T00:03:27.414Z,-2.96
2023-01-30T00:05:53.966Z,-2.99
2023-01-30T00:08:20.410Z,-2.92
2023-01-30T00:10:47.148Z,-2.80
2023-01-30T00:13:14.694Z,-2.84
2023-01-30T00:15:41.492Z,-2.73
2023-01-30T00:18:07.951Z,-2.84
2023-01-30T00:20:34.614Z,-2.86
2023-01-30T00:23:01.673Z,-2.81
2023-01-30T00:25:28.438Z,-2.77
2023-01-30T00:27:55.131Z,-2.74
2023-01-30T00:30:22.335Z,-2.74
2023-01-30T00:32:48.855Z,-2.72
2023-01-30T00:35:15.522Z,-2.70
2023-01-30T00:37:41.974Z,-2.67
2023-01-30T00:40:08.817Z,-2.66
2023-01-30T00:42:53.970Z,-2.77
2023-01-30T00:45:39.238Z,-2.59
2023-01-30T00:48:07.715Z,-2.62
2023-01-30T00:50:42.644Z,-2.57
2023-01-30T00:53:11.882Z,-2.53
2023-01-30T00:55:38.820Z,-2.57
2023-01-30T00:58:05.361Z,-2.60
2023-01-30T01:00:32.147Z,-2.46
2023-01-30T01:02:58.714Z,-2.50
2023-01-30T01:05:25.297Z,-2.50
2023-01-30T01:07:52.816Z,-2.46
2023-01-30T01:10:19.323Z,-2.39
2023-01-30T01:12:46.152Z,-2.41
2023-01-30T01:15:12.824Z,-2.39
2023-01-30T01:17:39.875Z,-2.38
2023-01-30T01:20:06.783Z,-2.36
2023-01-30T01:22:33.253Z,-2.36
2023-01-30T01:24:59.800Z,-2.23
2023-01-30T01:27:26.306Z,-2.29
2023-01-30T01:29:52.883Z,-2.20
2023-01-30T01:32:20.270Z,-2.25
2023-01-30T01:34:46.748Z,-2.18
2023-01-30T01:37:13.298Z,-2.23
2023-01-30T01:39:58.436Z,-2.17
2023-01-30T01:42:26.956Z,-2.16
2023-01-30T01:45:13.181Z,-2.11
2023-01-30T01:47:40.784Z,-2.11
2023-01-30T01:50:09.479Z,-2.23
2023-01-30T01:52:35.951Z,-2.17
2023-01-30T01:55:02.897Z,-2.08
2023-01-30T01:57:31.337Z,-2.04
2023-01-30T02:00:11.589Z,-1.97
2023-01-30T02:02:42.343Z,-2.02
2023-01-30T02:05:11.276Z,-2.03
2023-01-30T02:07:38.515Z,-1.95
2023-01-30T02:10:05.591Z,-2.01
2023-01-30T02:12:32.360Z,-1.90
2023-01-30T02:14:58.907Z,-1.92
2023-01-30T02:17:25.457Z,-1.92
2023-01-30T02:19:54.949Z,-1.87
2023-01-30T02:22:27.437Z,-1.84
2023-01-30T02:24:56.936Z,-1.84
2023-01-30T02:27:42.128Z,-1.87
2023-01-30T02:30:17.707Z,-1.86
2023-01-30T02:32:44.127Z,-1.88
2023-01-30T02:35:17.900Z,-1.78
2023-01-30T02:37:44.632Z,-1.72
2023-01-30T02:40:11.124Z,-1.85
2023-01-30T02:42:37.951Z,-1.87
2023-01-30T02:45:24.110Z,-1.79
2023-01-30T02:47:53.746Z,-1.71
2023-01-30T02:50:25.181Z,-1.66
2023-01-30T02:52:53.298Z,-1.65
2023-01-30T02:55:24.085Z,-1.67
2023-01-30T02:57:51.212Z,-1.59
2023-01-30T03:00:22.527Z,-1.55
2023-01-30T03:03:07.353Z,-1.60
2023-01-30T03:05:46.274Z,-1.60
2023-01-30T03:08:15.826Z,-1.56
2023-01-30T03:10:50.576Z,-1.64
2023-01-30T03:13:26.217Z,-1.55
2023-01-30T03:15:58.828Z,-1.49
2023-01-30T03:18:25.317Z,-1.44
2023-01-30T03:20:52.127Z,-1.49
2023-01-30T03:23:18.863Z,-1.42
2023-01-30T03:25:45.427Z,-1.43
2023-01-30T03:28:12.041Z,-1.24
2023-01-30T03:30:38.659Z,-1.31
2023-01-30T03:33:08.904Z,-1.40
2023-01-30T03:35:37.057Z,-1.42
2023-01-30T03:38:03.657Z,-1.38
2023-01-30T03:40:30.181Z,-1.29
2023-01-30T03:42:57.890Z,-1.33
2023-01-30T03:45:24.506Z,-1.34
2023-01-30T03:47:51.977Z,-1.29
2023-01-30T03:50:18.495Z,-1.14
2023-01-30T03:52:45.757Z,-1.22
2023-01-30T03:55:16.101Z,-1.15
2023-01-30T03:57:43.124Z,-1.18
2023-01-30T04:00:10.237Z,-1.24
2023-01-30T04:02:48.979Z,-1.23
2023-01-30T04:05:17.822Z,-1.31
2023-01-30T04:07:50.394Z,-1.24
2023-01-30T04:10:18.502Z,-1.19
2023-01-30T04:12:44.962Z,-1.20
2023-01-30T04:15:11.577Z,-1.13
2023-01-30T04:17:48.678Z,-1.14
2023-01-30T04:20:30.400Z,-1.07
2023-01-30T04:22:57.584Z,-1.03
2023-01-30T04:25:26.072Z,-1.12
2023-01-30T04:27:52.792Z,-1.12
2023-01-30T04:30:23.881Z,-1.06
2023-01-30T04:32:55.030Z,-0.97
2023-01-30T04:35:21.936Z,-1.06
2023-01-30T04:37:48.466Z,-0.99
2023-01-30T04:40:18.938Z,-0.95
2023-01-30T04:42:45.485Z,-0.99
2023-01-30T04:45:30.509Z,-0.96
2023-01-30T04:47:57.172Z,-1.03
2023-01-30T04:50:23.837Z,-0.94
2023-01-30T04:52:50.409Z,-1.01
2023-01-30T04:55:17.597Z,-1.00
2023-01-30T04:57:44.226Z,-0.96
2023-01-30T05:00:11.414Z,-1.03
2023-01-30T05:02:43.555Z,-0.93
2023-01-30T05:05:10.093Z,-0.98
2023-01-30T05:07:36.629Z,-0.89
2023-01-30T05:10:03.383Z,-0.83
2023-01-30T05:12:30.697Z,-0.82
2023-01-30T05:14:57.212Z,-0.74
2023-01-30T05:17:23.798Z,-0.77
2023-01-30T05:19:50.408Z,-0.67
2023-01-30T05:22:16.856Z,-0.65
2023-01-30T05:24:43.669Z,-0.66
2023-01-30T05:27:10.106Z,-0.61
2023-01-30T05:29:36.571Z,-0.47
2023-01-30T05:32:03.835Z,-0.60
2023-01-30T05:34:30.391Z,-0.59
2023-01-30T05:36:56.846Z,-0.55
2023-01-30T05:39:23.423Z,-0.69
2023-01-30T05:41:49.908Z,-0.59
2023-01-30T05:44:16.405Z,-0.52
2023-01-30T05:46:43.106Z,-0.50
2023-01-30T05:49:09.622Z,-0.59
2023-01-30T05:51:36.204Z,-0.60
2023-01-30T05:54:02.677Z,-0.59
2023-01-30T05:56:33.153Z,-0.47
2023-01-30T05:59:00.001Z,-0.46
2023-01-30T06:01:26.525Z,-0.52
2023-01-30T06:03:53.254Z,-0.41
2023-01-30T06:06:19.756Z,-0.42
2023-01-30T06:08:46.388Z,-0.50
2023-01-30T06:11:16.586Z,-0.52
2023-01-30T06:13:43.317Z,-0.52
2023-01-30T06:16:12.024Z,-0.46
2023-01-30T06:18:38.610Z,-0.40
2023-01-30T06:21:05.117Z,-0.41
2023-01-30T06:23:31.648Z,-0.36
2023-01-30T06:25:58.189Z,-0.35
2023-01-30T06:28:24.870Z,-0.35
2023-01-30T06:30:51.623Z,-0.33
2023-01-30T06:33:18.204Z,-0.26
2023-01-30T06:35:45.021Z,-0.25
2023-01-30T06:38:11.725Z,-0.21
2023-01-30T06:40:38.437Z,-0.17
2023-01-30T06:43:05.763Z,-0.23
2023-01-30T06:45:32.976Z,-0.21
2023-01-30T06:47:59.948Z,-0.16
2023-01-30T06:50:27.078Z,-0.13
2023-01-30T06:52:53.813Z,0.04
2023-01-30T06:55:21.653Z,0.04
2023-01-30T06:57:48.172Z,0.04
2023-01-30T07:00:18.188Z,0.01
2023-01-30T07:02:44.949Z,0.09
2023-01-30T07:05:11.541Z,0.11
2023-01-30T07:07:38.342Z,0.11
2023-01-30T07:10:08.645Z,0.17
2023-01-30T07:12:36.369Z,0.21
2023-01-30T07:15:03.340Z,0.23
2023-01-30T07:17:29.975Z,0.27
2023-01-30T07:19:56.667Z,0.22
2023-01-30T07:22:23.264Z,0.35
2023-01-30T07:24:49.833Z,0.40
2023-01-30T07:27:16.535Z,0.44
2023-01-30T07:29:46.299Z,0.46
2023-01-30T07:32:14.917Z,0.43
2023-01-30T07:34:41.862Z,0.47
2023-01-30T07:37:08.421Z,0.49
2023-01-30T07:39:35.396Z,0.50
2023-01-30T07:42:02.033Z,0.50
2023-01-30T07:44:28.469Z,0.48
2023-01-30T07:46:55.018Z,0.57
2023-01-30T07:49:21.506Z,0.57
2023-01-30T07:51:47.964Z,0.61
2023-01-30T07:54:14.527Z,0.58
2023-01-30T07:56:41.082Z,0.54
2023-01-30T07:59:07.538Z,0.60
2023-01-30T08:01:34.144Z,0.61
2023-01-30T08:04:00.758Z,0.61
2023-01-30T08:06:27.231Z,0.62
2023-01-30T08:08:53.696Z,0.61
2023-01-30T08:11:20.196Z,0.64
2023-01-30T08:13:48.342Z,0.67
2023-01-30T08:16:14.927Z,0.56
2023-01-30T08:18:41.491Z,0.58
2023-01-30T08:21:08.095Z,0.59
2023-01-30T08:23:34.669Z,0.53
2023-01-30T08:26:01.796Z,0.51
2023-01-30T08:28:28.888Z,0.68
2023-01-30T08:30:55.666Z,0.57
2023-01-30T08:33:22.607Z,0.54
2023-01-30T08:35:49.339Z,0.51
2023-01-30T08:38:16.415Z,0.48
2023-01-30T08:40:43.000Z,0.55
2023-01-30T08:43:09.477Z,0.58
2023-01-30T08:45:35.966Z,0.55
2023-01-30T08:48:02.996Z,0.70
2023-01-30T08:50:29.481Z,0.67
2023-01-30T08:52:56.016Z,0.80
2023-01-30T08:55:22.510Z,0.64
2023-01-30T08:57:49.076Z,0.74
2023-01-30T09:00:16.167Z,0.83
2023-01-30T09:02:42.713Z,0.67
2023-01-30T09:05:11.075Z,0.83
2023-01-30T09:07:37.627Z,0.79
2023-01-30T09:10:04.491Z,0.82
2023-01-30T09:12:31.095Z,0.85
2023-01-30T09:14:58.499Z,0.93
2023-01-30T09:17:25.057Z,0.90
2023-01-30T09:19:51.657Z,0.86
2023-01-30T09:22:18.302Z,0.99
2023-01-30T09:24:44.776Z,1.06
2023-01-30T09:27:11.250Z,0.99
2023-01-30T09:29:37.745Z,1.00
2023-01-30T09:32:04.357Z,1.13
2023-01-30T09:34:30.812Z,1.14
2023-01-30T09:37:00.420Z,1.22
2023-01-30T09:39:27.497Z,1.14
2023-01-30T09:42:01.193Z,1.10
2023-01-30T09:44:40.469Z,1.10
2023-01-30T09:47:13.660Z,1.15
2023-01-30T09:49:59.009Z,1.09
2023-01-30T09:52:46.810Z,0.98
2023-01-30T09:55:17.374Z,0.90
2023-01-30T09:57:44.013Z,1.04
2023-01-30T10:00:29.133Z,1.06
2023-01-30T10:03:01.410Z,1.09
2023-01-30T10:05:31.272Z,1.14
2023-01-30T10:08:01.597Z,1.27
2023-01-30T10:10:37.228Z,1.27
2023-01-30T10:13:06.697Z,1.24
2023-01-30T10:15:49.619Z,1.23
2023-01-30T10:18:25.139Z,1.36
2023-01-30T10:20:57.866Z,1.52
2023-01-30T10:23:36.618Z,1.64
2023-01-30T10:26:10.358Z,1.47
2023-01-30T10:28:52.468Z,1.57
2023-01-30T10:31:26.619Z,1.64
2023-01-30T10:33:58.313Z,1.52
2023-01-30T10:36:51.015Z,1.59
2023-01-30T10:39:54.912Z,1.61
2023-01-30T10:42:29.189Z,1.55
2023-01-30T10:44:58.731Z,1.54
2023-01-30T10:47:47.022Z,1.58
2023-01-30T10:50:15.734Z,1.64
2023-01-30T10:53:01.170Z,1.67
2023-01-30T10:55:37.084Z,1.67
2023-01-30T10:58:06.816Z,1.80
2023-01-30T11:00:36.259Z,1.83
2023-01-30T11:03:10.574Z,1.83
2023-01-30T11:05:46.910Z,1.74
2023-01-30T11:08:19.879Z,1.80
2023-01-30T11:10:46.316Z,1.80
2023-01-30T11:13:20.072Z,1.86
2023-01-30T11:15:47.904Z,1.86
2023-01-30T11:19:05.227Z,1.66
2023-01-30T11:21:14.685Z,1.65
2023-01-30T11:23:41.905Z,1.57
2023-01-30T11:26:12.305Z,1.64
2023-01-30T11:28:42.724Z,1.55
2023-01-30T11:31:17.417Z,1.53
2023-01-30T11:33:44.997Z,1.54
2023-01-30T11:36:28.094Z,1.53
2023-01-30T11:38:56.495Z,1.54
2023-01-30T11:41:23.091Z,1.55
2023-01-30T11:43:49.667Z,1.74
2023-01-30T11:46:17.215Z,1.74
2023-01-30T11:49:03.689Z,1.85
2023-01-30T11:51:34.166Z,2.01
2023-01-30T11:54:01.228Z,2.16
2023-01-30T11:56:38.308Z,2.19
2023-01-30T11:59:28.148Z,2.27
2023-01-30T12:02:23.810Z,2.18
2023-01-30T12:04:53.804Z,1.89
2023-01-30T12:07:24.641Z,1.83
2023-01-30T12:09:51.703Z,1.78
2023-01-30T12:12:24.334Z,1.59
2023-01-30T12:14:50.820Z,1.60
2023-01-30T12:17:21.648Z,1.72
2023-01-30T12:20:00.481Z,1.73
2023-01-30T12:22:41.711Z,1.65
2023-01-30T12:25:11.461Z,1.70
2023-01-30T12:27:44.812Z,1.67
2023-01-30T12:30:29.858Z,1.68
2023-01-30T12:32:57.669Z,1.75
2023-01-30T12:35:25.702Z,1.69
2023-01-30T12:38:04.076Z,1.78
2023-01-30T12:40:53.688Z,1.84
2023-01-30T12:43:20.119Z,1.88
2023-01-30T12:45:46.724Z,1.96
2023-01-30T12:48:13.132Z,2.00
2023-01-30T12:50:52.710Z,2.01
2023-01-30T12:53:32.978Z,1.94
2023-01-30T12:56:11.729Z,1.88
2023-01-30T12:58:39.570Z,1.98
2023-01-30T13:01:06.194Z,1.89
2023-01-30T13:04:05.166Z,1.83
2023-01-30T13:06:34.672Z,1.87
2023-01-30T13:09:05.301Z,1.84
2023-01-30T13:11:31.762Z,1.77
2023-01-30T13:14:01.273Z,1.97
2023-01-30T13:16:30.168Z,2.10
2023-01-30T13:18:57.998Z,1.85
2023-01-30T13:21:27.197Z,1.85
2023-01-30T13:23:53.648Z,1.97
2023-01-30T13:26:21.331Z,1.91
2023-01-30T13:29:10.916Z,1.92
2023-01-30T13:31:38.886Z,1.92
2023-01-30T13:34:06.502Z,1.94
2023-01-30T13:36:36.989Z,2.06
2023-01-30T13:39:09.336Z,2.01
2023-01-30T13:41:36.346Z,2.02
2023-01-30T13:44:03.912Z,2.06
2023-01-30T13:46:30.576Z,2.01
2023-01-30T13:49:00.162Z,2.28
2023-01-30T13:51:26.723Z,2.29
2023-01-30T13:54:02.796Z,2.19
2023-01-30T13:56:47.905Z,2.25
2023-01-30T13:59:16.628Z,2.33
2023-01-30T14:02:04.851Z,2.23
2023-01-30T14:04:40.416Z,2.34
2023-01-30T14:07:10.152Z,2.23
2023-01-30T14:09:37.336Z,2.23
2023-01-30T14:12:04.147Z,2.14
2023-01-30T14:14:36.526Z,2.15
2023-01-30T14:17:15.710Z,1.97
2023-01-30T14:19:57.158Z,1.97
2023-01-30T14:22:50.605Z,1.96
2023-01-30T14:25:23.250Z,2.04
2023-01-30T14:27:52.730Z,2.17
2023-01-30T14:30:31.372Z,2.12
2023-01-30T14:32:58.543Z,2.06
2023-01-30T14:35:25.596Z,2.15
2023-01-30T14:38:03.715Z,2.12
2023-01-30T14:40:31.147Z,2.21
2023-01-30T14:43:13.094Z,2.25
2023-01-30T14:45:49.065Z,2.35
2023-01-30T14:48:34.297Z,2.36
2023-01-30T14:51:10.314Z,2.42
2023-01-30T14:54:03.109Z,2.52
2023-01-30T14:56:43.434Z,2.51
2023-01-30T14:59:30.134Z,2.47
2023-01-30T15:02:17.748Z,2.47
2023-01-30T15:04:50.096Z,2.38
2023-01-30T15:07:20.621Z,2.26
2023-01-30T15:09:51.484Z,2.22
2023-01-30T15:12:28.535Z,2.21
2023-01-30T15:14:59.163Z,2.09
2023-01-30T15:17:40.137Z,2.14
2023-01-30T15:20:07.100Z,2.22
2023-01-30T15:22:36.440Z,2.24
2023-01-30T15:25:08.163Z,2.12
2023-01-30T15:27:51.104Z,2.09
2023-01-30T15:30:39.364Z,2.25
2023-01-30T15:33:30.948Z,2.28
2023-01-30T15:35:58.700Z,2.27
2023-01-30T15:38:32.568Z,2.40
2023-01-30T15:41:02.763Z,2.39
2023-01-30T15:43:35.388Z,2.41
2023-01-30T15:46:11.132Z,2.47
2023-01-30T15:48:40.395Z,2.57
2023-01-30T15:51:09.094Z,2.63
2023-01-30T15:53:36.381Z,2.52
2023-01-30T15:56:03.451Z,2.57
2023-01-30T15:58:29.951Z,2.69
2023-01-30T16:00:57.532Z,2.63
2023-01-30T16:03:25.043Z,2.64
2023-01-30T16:05:55.448Z,2.73
2023-01-30T16:08:22.934Z,2.60
2023-01-30T16:10:52.557Z,2.66
2023-01-30T16:13:21.035Z,2.57
2023-01-30T16:15:50.357Z,2.62
2023-01-30T16:18:27.956Z,2.55
2023-01-30T16:24:02.822Z,2.76
2023-01-30T16:26:29.325Z,2.61
2023-01-30T16:29:00.203Z,2.65
2023-01-30T16:31:27.468Z,2.66
2023-01-30T16:33:54.155Z,2.62
2023-01-30T16:36:20.596Z,2.68
2023-01-30T16:38:47.574Z,2.63
2023-01-30T16:41:33.456Z,2.59
2023-01-30T16:44:09.224Z,2.59
2023-01-30T16:46:41.612Z,2.60
2023-01-30T16:49:18.607Z,2.59
2023-01-30T16:51:45.092Z,2.62
2023-01-30T16:54:19.437Z,2.64
2023-01-30T16:56:47.568Z,2.62
2023-01-30T16:59:20.841Z,2.67
2023-01-30T17:01:47.742Z,2.57
2023-01-30T17:04:16.244Z,2.61
2023-01-30T17:06:43.346Z,2.63
2023-01-30T17:09:31.419Z,2.71
2023-01-30T17:11:58.089Z,2.87
2023-01-30T17:14:30.968Z,3.07
2023-01-30T17:17:07.692Z,2.99
2023-01-30T17:19:34.477Z,2.90
2023-01-30T17:22:02.300Z,2.87
2023-01-30T17:24:29.079Z,2.96
2023-01-30T17:27:06.631Z,2.81
2023-01-30T17:29:42.757Z,2.85
2023-01-30T17:32:16.342Z,2.86
2023-01-30T17:34:58.634Z,2.82
2023-01-30T17:37:32.372Z,2.86
2023-01-30T17:40:10.805Z,2.91
2023-01-30T17:42:46.245Z,2.84
2023-01-30T17:45:18.722Z,2.75
2023-01-30T17:47:48.774Z,2.73
2023-01-30T17:50:23.156Z,2.75
2023-01-30T17:53:01.519Z,2.77
2023-01-30T17:55:38.603Z,2.78
2023-01-30T17:58:08.812Z,2.73
2023-01-30T18:00:45.126Z,2.68
2023-01-30T18:03:20.741Z,2.67
2023-01-30T18:05:49.065Z,2.76
2023-01-30T18:08:25.724Z,2.66
2023-01-30T18:10:56.805Z,2.70
2023-01-30T18:13:27.105Z,2.80
2023-01-30T18:15:55.034Z,2.65
2023-01-30T18:18:32.718Z,2.64
2023-01-30T18:21:01.814Z,2.71
2023-01-30T18:23:33.471Z,2.71
2023-01-30T18:26:04.003Z,2.70
2023-01-30T18:28:33.822Z,2.72
2023-01-30T18:31:10.636Z,2.99
2023-01-30T18:33:37.943Z,2.63
2023-01-30T18:36:09.995Z,2.61
2023-01-30T18:38:41.954Z,2.65
2023-01-30T18:41:20.569Z,2.64
2023-01-30T18:46:30.607Z,2.66
2023-01-30T18:49:00.664Z,2.64
2023-01-30T18:51:41.326Z,2.64
2023-01-30T18:54:09.309Z,2.61
2023-01-30T18:56:38.839Z,2.62
2023-01-30T18:59:08.850Z,2.68
2023-01-30T19:01:38.107Z,2.66
2023-01-30T19:04:06.229Z,2.64
2023-01-30T19:06:35.288Z,2.75
2023-01-30T19:09:12.466Z,2.60
2023-01-30T19:12:01.887Z,2.75
2023-01-30T19:14:30.795Z,2.76
2023-01-30T19:16:57.636Z,2.66
2023-01-30T19:19:27.087Z,2.65
2023-01-30T19:21:56.758Z,2.64
2023-01-30T19:24:36.015Z,2.58
2023-01-30T19:27:05.852Z,2.67
2023-01-30T19:29:35.746Z,2.66
2023-01-30T19:32:10.555Z,2.70
2023-01-30T19:34:49.850Z,2.64
2023-01-30T19:37:16.770Z,2.66
2023-01-30T19:39:43.455Z,2.71
2023-01-30T19:42:18.928Z,2.72
2023-01-30T19:44:51.275Z,2.77
2023-01-30T19:47:23.140Z,2.70
2023-01-30T19:50:00.159Z,2.65
2023-01-30T19:52:30.102Z,2.79
2023-01-30T19:54:59.829Z,2.73
2023-01-30T19:57:45.681Z,2.76
2023-01-30T20:00:12.863Z,2.73
2023-01-30T20:02:39.671Z,2.67
2023-01-30T20:05:09.872Z,2.68
2023-01-30T20:07:39.892Z,2.72
2023-01-30T20:10:14.918Z,2.69
2023-01-30T20:12:41.674Z,2.62
2023-01-30T20:17:52.634Z,2.62
2023-01-30T20:20:24.846Z,2.55
2023-01-30T20:22:56.733Z,2.57
2023-01-30T20:25:26.092Z,2.59
2023-01-30T20:27:52.771Z,2.64
2023-01-30T20:30:19.853Z,2.43
2023-01-30T20:32:47.998Z,2.36
2023-01-30T20:35:15.763Z,2.31
2023-01-30T20:37:42.430Z,2.36
2023-01-30T20:40:09.375Z,2.38
2023-01-30T20:42:41.924Z,2.37
2023-01-30T20:45:08.889Z,2.35
2023-01-30T20:47:42.540Z,2.42
2023-01-30T20:50:18.878Z,2.43
2023-01-30T20:55:38.355Z,2.47
2023-01-30T20:58:06.413Z,2.53
2023-01-30T21:00:42.862Z,2.53
2023-01-30T21:03:16.893Z,2.57
2023-01-30T21:08:30.810Z,2.51
2023-01-30T21:11:16.900Z,2.51
2023-01-30T21:13:49.110Z,2.55
2023-01-30T21:16:29.871Z,2.72
2023-01-30T21:19:01.851Z,2.59
2023-01-30T21:21:40.290Z,2.47
2023-01-30T21:24:15.303Z,2.63
2023-01-30T21:26:46.472Z,2.57
2023-01-30T21:29:18.961Z,2.55
2023-01-30T21:31:52.225Z,2.56
2023-01-30T21:34:22.442Z,2.46
2023-01-30T21:37:08.988Z,2.35
2023-01-30T21:39:56.311Z,2.40
2023-01-30T21:42:46.140Z,2.30
2023-01-30T21:45:12.980Z,2.37
2023-01-30T21:47:42.042Z,2.35
2023-01-30T21:50:09.153Z,2.34
2023-01-30T21:52:49.266Z,2.32
2023-01-30T21:55:19.228Z,2.46
2023-01-30T21:57:54.623Z,2.26
2023-01-30T22:00:41.560Z,2.28
2023-01-30T22:03:08.276Z,2.18
2023-01-30T22:05:38.883Z,2.19
2023-01-30T22:08:06.619Z,2.09
2023-01-30T22:10:36.338Z,2.29
2023-01-30T22:13:03.191Z,2.34
2023-01-30T22:15:29.993Z,2.37
2023-01-30T22:17:56.564Z,2.28
2023-01-30T22:20:23.161Z,2.23
2023-01-30T22:22:49.853Z,2.21
2023-01-30T22:25:16.537Z,2.17
2023-01-30T22:27:43.221Z,2.19
2023-01-30T22:30:10.259Z,2.27
2023-01-30T22:32:37.385Z,2.25
2023-01-30T22:35:04.264Z,2.33
2023-01-30T22:37:30.976Z,2.31
2023-01-30T22:39:57.783Z,2.29
2023-01-30T22:42:24.505Z,2.31
2023-01-30T22:44:51.181Z,2.33
2023-01-30T22:47:20.624Z,2.29
2023-01-30T22:49:47.577Z,2.32
2023-01-30T22:52:14.378Z,2.15
2023-01-30T22:54:43.438Z,2.15
2023-01-30T22:57:10.243Z,2.12
2023-01-30T22:59:36.956Z,2.09
2023-01-30T23:02:04.265Z,2.08
2023-01-30T23:04:31.145Z,2.17
2023-01-30T23:07:01.615Z,2.21
2023-01-30T23:09:30.716Z,2.28
2023-01-30T23:12:16.256Z,2.28
2023-01-30T23:14:43.148Z,2.30
2023-01-30T23:17:28.620Z,2.37
2023-01-30T23:19:55.371Z,2.33
2023-01-30T23:22:22.059Z,2.31
2023-01-30T23:24:51.417Z,2.42
2023-01-30T23:27:21.427Z,2.49
2023-01-30T23:29:48.141Z,2.39
2023-01-30T23:32:15.257Z,2.46
2023-01-30T23:34:42.092Z,2.34
2023-01-30T23:37:08.782Z,2.25
2023-01-30T23:39:35.545Z,2.25
2023-01-30T23:42:02.366Z,2.29
2023-01-30T23:44:29.112Z,2.31
2023-01-30T23:46:55.714Z,2.24
2023-01-30T23:49:22.552Z,2.26
2023-01-30T23:51:49.239Z,2.16
2023-01-30T23:54:15.903Z,2.12
2023-01-30T23:56:43.649Z,2.09
2023-01-30T23:59:11.013Z,2.05
